createdAt,value
2022-08-25T00:00:56.385Z,11.65
2022-08-25T00:03:28.546Z,12.02
2022-08-25T00:06:06.570Z,11.98
2022-08-25T00:08:47.611Z,14.70
2022-08-25T00:11:28.045Z,14.23
2022-08-25T00:14:17.907Z,13.32
2022-08-25T00:16:47.290Z,13.77
2022-08-25T00:19:25.185Z,11.18
2022-08-25T00:21:57.471Z,12.18
2022-08-25T00:24:26.779Z,12.65
2022-08-25T00:27:04.408Z,13.07
2022-08-25T00:29:38.167Z,12.20
2022-08-25T00:32:07.309Z,12.80
2022-08-25T00:34:42.505Z,12.05
2022-08-25T00:37:14.406Z,13.48
2022-08-25T00:39:42.522Z,12.40
2022-08-25T00:42:11.871Z,12.82
2022-08-25T00:44:46.962Z,13.55
2022-08-25T00:47:17.591Z,16.55
2022-08-25T00:49:57.371Z,14.75
2022-08-25T00:52:35.791Z,12.65
2022-08-25T00:55:08.528Z,12.10
2022-08-25T00:58:02.002Z,12.77
2022-08-25T01:00:42.252Z,14.32
2022-08-25T01:03:31.565Z,13.88
2022-08-25T01:06:14.331Z,12.80
2022-08-25T01:09:05.462Z,13.15
2022-08-25T01:11:36.793Z,15.18
2022-08-25T01:14:08.148Z,15.10
2022-08-25T01:16:38.569Z,13.80
2022-08-25T01:19:15.612Z,14.05
2022-08-25T01:21:47.452Z,13.98
2022-08-25T01:24:27.813Z,14.73
2022-08-25T01:26:57.065Z,14.13
2022-08-25T01:29:27.088Z,14.63
2022-08-25T01:32:05.716Z,15.45
2022-08-25T01:34:47.098Z,14.48
2022-08-25T01:37:19.454Z,15.70
2022-08-25T01:39:48.294Z,14.70
2022-08-25T01:42:36.514Z,17.58
2022-08-25T01:45:08.599Z,16.08
2022-08-25T01:47:38.296Z,14.40
2022-08-25T01:50:07.932Z,16.27
2022-08-25T01:52:48.078Z,15.05
2022-08-25T01:55:17.836Z,15.90
2022-08-25T01:57:46.463Z,13.60
2022-08-25T02:00:19.033Z,15.27
2022-08-25T02:02:47.362Z,14.00
2022-08-25T02:05:25.973Z,16.55
2022-08-25T02:08:06.369Z,16.60
2022-08-25T02:10:37.126Z,14.38
2022-08-25T02:13:10.656Z,14.65
2022-08-25T02:15:46.992Z,15.80
2022-08-25T02:18:17.517Z,13.65
2022-08-25T02:20:47.673Z,14.38
2022-08-25T02:23:24.520Z,14.60
2022-08-25T02:26:02.933Z,16.98
2022-08-25T02:28:33.681Z,14.40
2022-08-25T02:31:13.183Z,14.85
2022-08-25T02:33:47.076Z,14.35
2022-08-25T02:36:17.404Z,16.17
2022-08-25T02:38:52.559Z,17.10
2022-08-25T02:41:31.354Z,15.57
2022-08-25T02:44:01.882Z,14.60
2022-08-25T02:46:31.052Z,14.90
2022-08-25T02:48:59.320Z,12.82
2022-08-25T02:51:29.944Z,14.85
2022-08-25T02:54:00.165Z,15.95
2022-08-25T02:56:28.268Z,14.13
2022-08-25T02:58:57.049Z,13.57
2022-08-25T03:01:28.738Z,15.38
2022-08-25T03:03:57.499Z,14.48
2022-08-25T03:06:25.294Z,14.52
2022-08-25T03:08:54.170Z,14.73
2022-08-25T03:11:23.978Z,14.60
2022-08-25T03:13:52.010Z,15.23
2022-08-25T03:16:20.146Z,13.85
2022-08-25T03:18:48.878Z,15.07
2022-08-25T03:21:17.230Z,15.13
2022-08-25T03:23:45.594Z,13.82
2022-08-25T03:26:31.038Z,13.30
2022-08-25T03:29:05.132Z,12.88
2022-08-25T03:31:34.204Z,14.73
2022-08-25T03:34:02.732Z,14.35
2022-08-25T03:36:30.713Z,14.13
2022-08-25T03:39:00.412Z,13.80
2022-08-25T03:41:32.529Z,14.13
2022-08-25T03:44:03.417Z,13.00
2022-08-25T03:46:34.333Z,14.38
2022-08-25T03:49:03.224Z,12.32
2022-08-25T03:51:33.837Z,12.95
2022-08-25T03:54:02.886Z,12.02
2022-08-25T03:56:31.491Z,13.98
2022-08-25T03:58:59.343Z,12.80
2022-08-25T04:01:28.670Z,11.57
2022-08-25T04:03:56.530Z,11.98
2022-08-25T04:06:24.261Z,11.30
2022-08-25T04:08:52.623Z,10.85
2022-08-25T04:11:22.878Z,9.98
2022-08-25T04:13:51.891Z,10.88
2022-08-25T04:16:22.190Z,10.18
2022-08-25T04:18:52.708Z,8.52
2022-08-25T04:21:21.842Z,8.55
2022-08-25T04:23:51.456Z,10.82
2022-08-25T04:26:21.241Z,8.93
2022-08-25T04:28:49.526Z,9.40
2022-08-25T04:31:19.057Z,9.00
2022-08-25T04:33:48.031Z,10.88
2022-08-25T04:36:19.608Z,8.80
2022-08-25T04:38:48.478Z,8.63
2022-08-25T04:41:19.167Z,10.18
2022-08-25T04:43:46.928Z,6.60
2022-08-25T04:46:20.238Z,10.27
2022-08-25T04:48:49.227Z,8.63
2022-08-25T04:51:23.338Z,8.07
2022-08-25T04:53:51.825Z,9.32
2022-08-25T04:56:25.131Z,8.13
2022-08-25T04:58:53.061Z,8.98
2022-08-25T05:01:22.662Z,8.68
2022-08-25T05:03:57.021Z,7.72
2022-08-25T05:06:43.561Z,7.63
2022-08-25T05:09:12.751Z,10.13
2022-08-25T05:11:47.606Z,7.68
2022-08-25T05:14:26.512Z,7.93
2022-08-25T05:16:57.438Z,11.00
2022-08-25T05:19:27.882Z,8.57
2022-08-25T05:21:59.137Z,7.53
2022-08-25T05:24:28.066Z,8.40
2022-08-25T05:26:58.038Z,9.68
2022-08-25T05:29:27.990Z,9.40
2022-08-25T05:32:00.857Z,9.25
2022-08-25T05:34:32.946Z,8.67
2022-08-25T05:37:10.407Z,7.07
2022-08-25T05:39:39.883Z,8.68
2022-08-25T05:42:08.026Z,7.20
2022-08-25T05:44:37.454Z,5.80
2022-08-25T05:47:07.845Z,8.60
2022-08-25T05:49:35.702Z,7.32
2022-08-25T05:52:08.088Z,7.53
2022-08-25T05:54:37.113Z,6.03
2022-08-25T05:57:07.626Z,5.95
2022-08-25T05:59:38.097Z,6.47
2022-08-25T06:02:36.086Z,7.47
2022-08-25T06:05:03.934Z,6.43
2022-08-25T06:07:33.061Z,7.33
2022-08-25T06:10:00.727Z,6.95
2022-08-25T06:12:28.386Z,8.13
2022-08-25T06:14:56.107Z,7.63
2022-08-25T06:17:23.756Z,6.15
2022-08-25T06:19:53.942Z,6.33
2022-08-25T06:22:26.451Z,6.90
2022-08-25T06:24:58.939Z,7.13
2022-08-25T06:27:27.767Z,7.78
2022-08-25T06:29:57.877Z,6.53
2022-08-25T06:32:49.240Z,8.57
2022-08-25T06:35:37.398Z,9.43
2022-08-25T06:38:07.525Z,9.00
2022-08-25T06:40:47.092Z,6.97
2022-08-25T06:43:17.966Z,8.80
2022-08-25T06:45:52.835Z,9.38
2022-08-25T06:48:23.766Z,6.45
2022-08-25T06:51:05.012Z,8.52
2022-08-25T06:53:38.141Z,9.65
2022-08-25T06:56:21.554Z,8.10
2022-08-25T06:59:06.360Z,7.65
2022-08-25T07:01:39.569Z,8.77
2022-08-25T07:04:12.764Z,6.93
2022-08-25T07:06:51.781Z,9.18
2022-08-25T07:09:20.793Z,7.22
2022-08-25T07:11:51.647Z,9.10
2022-08-25T07:14:29.572Z,7.03
2022-08-25T07:16:58.018Z,6.90
2022-08-25T07:19:28.117Z,7.43
2022-08-25T07:21:59.788Z,9.18
2022-08-25T07:24:31.764Z,6.40
2022-08-25T07:27:17.789Z,6.63
2022-08-25T07:29:55.227Z,7.05
2022-08-25T07:32:37.193Z,7.95
2022-08-25T07:35:19.222Z,5.53
2022-08-25T07:37:49.945Z,4.57
2022-08-25T07:40:37.558Z,6.28
2022-08-25T07:43:16.508Z,7.70
2022-08-25T07:48:36.698Z,7.63
2022-08-25T07:51:12.665Z,5.65
2022-08-25T07:53:48.595Z,6.10
2022-08-25T07:56:18.798Z,5.32
2022-08-25T07:58:58.235Z,6.07
2022-08-25T08:01:47.715Z,5.95
2022-08-25T08:04:18.292Z,4.00
2022-08-25T08:09:56.034Z,5.97
2022-08-25T08:12:29.310Z,5.93
2022-08-25T08:15:10.376Z,5.10
2022-08-25T08:17:43.745Z,5.45
2022-08-25T08:20:23.587Z,6.43
2022-08-25T08:22:52.858Z,4.82
2022-08-25T08:25:27.217Z,6.32
2022-08-25T08:27:58.418Z,6.65
2022-08-25T08:30:37.911Z,8.07
2022-08-25T08:33:11.329Z,7.03
2022-08-25T08:35:47.950Z,3.60
2022-08-25T08:38:22.090Z,8.50
2022-08-25T08:41:27.406Z,5.85
2022-08-25T08:44:17.944Z,6.90
2022-08-25T08:47:05.021Z,3.92
2022-08-25T08:49:47.597Z,4.78
2022-08-25T08:52:26.649Z,4.00
2022-08-25T08:55:16.627Z,6.13
2022-08-25T08:57:57.071Z,5.55
2022-08-25T09:00:29.665Z,3.72
2022-08-25T09:03:06.493Z,3.58
2022-08-25T09:06:00.086Z,4.20
2022-08-25T09:08:29.316Z,4.15
2022-08-25T09:11:10.023Z,4.80
2022-08-25T09:13:58.467Z,5.50
2022-08-25T09:16:58.991Z,5.15
2022-08-25T09:19:57.688Z,3.35
2022-08-25T09:22:48.128Z,2.78
2022-08-25T09:25:52.594Z,4.15
2022-08-25T09:28:27.283Z,3.95
2022-08-25T09:31:01.615Z,6.22
2022-08-25T09:33:39.711Z,5.45
2022-08-25T09:36:15.846Z,5.43
2022-08-25T09:38:47.710Z,4.72
2022-08-25T09:41:39.105Z,3.42
2022-08-25T09:44:19.491Z,3.58
2022-08-25T09:47:15.844Z,5.13
2022-08-25T09:49:58.203Z,6.55
2022-08-25T09:52:53.496Z,2.90
2022-08-25T09:55:28.933Z,7.22
2022-08-25T09:57:58.338Z,5.47
2022-08-25T10:00:29.496Z,3.88
2022-08-25T10:03:15.862Z,3.88
2022-08-25T10:06:00.910Z,3.78
2022-08-25T10:08:35.391Z,5.57
2022-08-25T10:11:08.814Z,5.15
2022-08-25T10:13:41.339Z,4.93
2022-08-25T10:16:20.479Z,7.60
2022-08-25T10:19:08.758Z,3.70
2022-08-25T10:21:38.316Z,5.22
2022-08-25T10:24:18.785Z,4.20
2022-08-25T10:27:02.705Z,4.32
2022-08-25T10:29:55.942Z,3.13
2022-08-25T10:32:35.592Z,5.13
2022-08-25T10:35:28.006Z,4.40
2022-08-25T10:38:21.673Z,3.72
2022-08-25T10:41:07.263Z,2.88
2022-08-25T10:43:50.147Z,4.57
2022-08-25T10:51:01.823Z,3.42
2022-08-25T10:53:44.411Z,3.17
2022-08-25T10:56:21.587Z,6.35
2022-08-25T10:59:24.573Z,5.82
2022-08-25T11:02:42.768Z,6.15
2022-08-25T11:05:43.916Z,2.97
2022-08-25T11:08:34.101Z,3.78
2022-08-25T11:11:13.664Z,4.97
2022-08-25T11:13:49.397Z,7.32
2022-08-25T11:19:21.817Z,3.20
2022-08-25T11:22:24.055Z,4.15
2022-08-25T11:25:46.721Z,4.03
2022-08-25T11:28:57.997Z,3.00
2022-08-25T11:32:29.146Z,3.88
2022-08-25T11:35:30.196Z,3.05
2022-08-25T11:38:32.983Z,3.10
2022-08-25T11:41:39.230Z,2.95
2022-08-25T11:48:15.103Z,4.30
2022-08-25T11:51:14.638Z,4.25
2022-08-25T11:54:43.701Z,4.72
2022-08-25T11:57:45.713Z,3.30
2022-08-25T12:00:53.890Z,6.07
2022-08-25T12:04:24.652Z,5.95
2022-08-25T12:11:45.271Z,4.20
2022-08-25T12:14:44.278Z,5.80
2022-08-25T12:18:46.094Z,2.42
2022-08-25T12:21:36.137Z,4.45
2022-08-25T12:24:24.532Z,4.32
2022-08-25T12:27:06.266Z,4.78
2022-08-25T12:30:05.728Z,3.13
2022-08-25T12:33:16.249Z,3.83
2022-08-25T12:36:35.717Z,4.80
2022-08-25T12:39:45.346Z,3.20
2022-08-25T12:42:44.991Z,3.88
2022-08-25T12:45:45.940Z,4.63
2022-08-25T12:49:03.417Z,5.05
2022-08-25T12:51:55.128Z,4.95
2022-08-25T12:54:54.739Z,3.83
2022-08-25T12:58:03.454Z,6.68
2022-08-25T13:03:55.127Z,4.10
2022-08-25T13:07:06.469Z,5.65
2022-08-25T13:10:42.491Z,7.07
2022-08-25T13:13:54.822Z,6.90
2022-08-25T13:16:36.341Z,8.18
2022-08-25T13:19:25.753Z,5.60
2022-08-25T13:22:16.085Z,5.55
2022-08-25T13:32:36.286Z,4.30
2022-08-25T13:36:15.249Z,5.72
2022-08-25T13:38:22.571Z,4.97
2022-08-25T13:39:03.358Z,6.65
2022-08-25T13:41:13.458Z,5.70
2022-08-25T13:43:55.290Z,4.25
2022-08-25T13:46:55.715Z,5.43
2022-08-25T13:49:46.245Z,10.00
2022-08-25T13:52:34.795Z,8.25
2022-08-25T13:55:23.192Z,5.80
2022-08-25T13:58:38.931Z,6.85
2022-08-25T14:05:18.434Z,11.05
2022-08-25T14:08:16.190Z,17.20
2022-08-25T14:10:49.813Z,13.80
2022-08-25T14:13:32.051Z,10.15
2022-08-25T14:16:20.494Z,15.07
2022-08-25T14:18:51.930Z,13.93
2022-08-25T14:21:31.356Z,14.82
2022-08-25T14:24:01.041Z,13.38
2022-08-25T14:26:29.071Z,12.70
2022-08-25T14:28:58.625Z,12.68
2022-08-25T14:31:29.390Z,16.33
2022-08-25T14:34:02.791Z,13.98
2022-08-25T14:36:43.373Z,14.88
2022-08-25T14:39:14.572Z,16.08
2022-08-25T14:41:52.454Z,20.55
2022-08-25T14:44:21.819Z,18.15
2022-08-25T14:46:55.588Z,20.88
2022-08-25T14:49:34.148Z,18.92
2022-08-25T14:52:09.614Z,21.25
2022-08-25T14:54:38.016Z,21.40
2022-08-25T14:57:08.404Z,21.65
2022-08-25T14:59:43.153Z,24.13
2022-08-25T15:02:14.299Z,24.30
2022-08-25T15:04:49.331Z,23.90
2022-08-25T15:07:39.562Z,24.85
2022-08-25T15:10:09.585Z,21.95
2022-08-25T15:12:47.878Z,21.40
2022-08-25T15:15:26.492Z,21.55
2022-08-25T15:17:55.333Z,20.98
2022-08-25T15:20:27.593Z,22.58
2022-08-25T15:23:00.553Z,21.42
2022-08-25T15:25:29.254Z,19.83
2022-08-25T15:27:58.258Z,21.65
2022-08-25T15:30:30.882Z,22.15
2022-08-25T15:32:59.848Z,22.50
2022-08-25T15:35:29.104Z,24.65
2022-08-25T15:37:57.403Z,24.33
2022-08-25T15:40:27.270Z,21.48
2022-08-25T15:42:55.220Z,20.17
2022-08-25T15:45:23.845Z,24.95
2022-08-25T15:47:53.951Z,25.50
2022-08-25T15:50:26.233Z,21.58
2022-08-25T15:52:54.583Z,25.38
2022-08-25T15:55:23.606Z,23.30
2022-08-25T15:57:53.698Z,23.63
2022-08-25T16:00:22.901Z,23.15
2022-08-25T16:02:52.737Z,22.25
2022-08-25T16:05:25.762Z,22.65
2022-08-25T16:07:54.346Z,21.60
2022-08-25T16:10:22.672Z,22.05
2022-08-25T16:12:53.234Z,20.52
2022-08-25T16:15:24.163Z,15.63
2022-08-25T16:17:57.208Z,18.27
2022-08-25T16:20:25.218Z,16.52
2022-08-25T16:22:54.150Z,17.73
2022-08-25T16:25:36.300Z,15.30
2022-08-25T16:28:05.821Z,18.50
2022-08-25T16:30:34.100Z,16.25
2022-08-25T16:33:02.854Z,15.85
2022-08-25T16:35:31.176Z,18.75
2022-08-25T16:38:00.728Z,15.95
2022-08-25T16:40:32.298Z,16.52
2022-08-25T16:43:00.584Z,16.48
2022-08-25T16:45:30.106Z,19.70
2022-08-25T16:47:58.606Z,19.30
2022-08-25T16:50:26.821Z,15.32
2022-08-25T16:53:13.826Z,16.35
2022-08-25T16:55:41.753Z,16.90
2022-08-25T16:58:13.494Z,19.42
2022-08-25T17:00:44.600Z,14.15
2022-08-25T17:03:13.889Z,13.98
2022-08-25T17:05:44.048Z,14.35
2022-08-25T17:08:30.831Z,15.95
2022-08-25T17:11:08.297Z,17.30
2022-08-25T17:13:37.022Z,12.07
2022-08-25T17:16:07.714Z,15.20
2022-08-25T17:18:36.652Z,12.07
2022-08-25T17:21:08.342Z,17.95
2022-08-25T17:23:38.600Z,12.35
2022-08-25T17:26:13.027Z,11.35
2022-08-25T17:28:43.917Z,12.65
2022-08-25T17:31:16.667Z,13.57
2022-08-25T17:33:45.707Z,10.32
2022-08-25T17:36:17.388Z,9.90
2022-08-25T17:38:46.977Z,9.27
2022-08-25T17:41:16.103Z,8.88
2022-08-25T17:43:44.808Z,10.10
2022-08-25T17:46:15.917Z,11.38
2022-08-25T17:48:44.104Z,7.40
2022-08-25T17:51:20.024Z,7.38
2022-08-25T17:53:49.918Z,10.27
2022-08-25T17:56:21.090Z,8.23
2022-08-25T17:58:50.766Z,8.07
2022-08-25T18:01:22.649Z,8.05
2022-08-25T18:03:51.437Z,8.90
2022-08-25T18:06:20.017Z,11.82
2022-08-25T18:08:53.609Z,13.43
2022-08-25T18:11:27.756Z,7.80
2022-08-25T18:13:56.875Z,7.57
2022-08-25T18:16:37.939Z,9.25
2022-08-25T18:19:09.609Z,10.13
2022-08-25T18:21:38.585Z,8.63
2022-08-25T18:24:11.234Z,11.60
2022-08-25T18:27:01.888Z,8.70
2022-08-25T18:29:31.045Z,9.63
2022-08-25T18:32:01.133Z,8.75
2022-08-25T18:34:33.429Z,7.80
2022-08-25T18:37:18.479Z,11.00
2022-08-25T18:40:10.433Z,11.25
2022-08-25T18:42:42.405Z,8.77
2022-08-25T18:45:12.615Z,6.88
2022-08-25T18:47:42.756Z,10.77
2022-08-25T18:50:13.884Z,9.50
2022-08-25T18:52:45.906Z,8.52
2022-08-25T18:55:14.438Z,9.55
2022-08-25T18:57:42.942Z,9.00
2022-08-25T19:00:14.085Z,9.00
2022-08-25T19:03:03.248Z,8.38
2022-08-25T19:05:41.765Z,9.77
2022-08-25T19:08:21.781Z,8.73
2022-08-25T19:10:55.693Z,8.77
2022-08-25T19:13:26.349Z,8.88
2022-08-25T19:15:57.142Z,9.23
2022-08-25T19:18:38.038Z,10.30
2022-08-25T19:21:07.734Z,8.70
2022-08-25T19:23:39.040Z,7.90
2022-08-25T19:26:22.759Z,9.00
2022-08-25T19:31:39.227Z,6.03
2022-08-25T19:34:30.416Z,5.60
2022-08-25T19:37:01.823Z,5.57
2022-08-25T19:39:33.371Z,6.28
2022-08-25T19:42:35.147Z,7.50
2022-08-25T19:44:59.379Z,4.82
2022-08-25T19:47:29.682Z,5.38
2022-08-25T19:50:02.657Z,5.32
2022-08-25T19:52:31.677Z,6.07
2022-08-25T19:55:02.983Z,9.30
2022-08-25T19:57:42.712Z,8.05
2022-08-25T20:00:16.611Z,7.53
2022-08-25T20:02:49.228Z,7.53
2022-08-25T20:05:27.363Z,5.70
2022-08-25T20:07:57.204Z,7.88
2022-08-25T20:10:28.816Z,5.18
2022-08-25T20:12:58.405Z,5.38
2022-08-25T20:15:28.270Z,6.80
2022-08-25T20:18:04.085Z,6.03
2022-08-25T20:20:35.669Z,4.28
2022-08-25T20:23:18.559Z,3.92
2022-08-25T20:25:50.778Z,5.40
2022-08-25T20:28:19.780Z,3.22
2022-08-25T20:30:48.670Z,4.03
2022-08-25T20:33:20.179Z,2.92
2022-08-25T20:35:52.962Z,3.10
2022-08-25T20:38:24.273Z,2.65
2022-08-25T20:40:53.035Z,3.22
2022-08-25T20:43:21.054Z,4.90
2022-08-25T20:45:50.054Z,2.28
2022-08-25T20:48:18.796Z,6.60
2022-08-25T20:50:57.182Z,4.05
2022-08-25T20:53:28.268Z,2.65
2022-08-25T20:55:56.802Z,3.67
2022-08-25T20:58:28.639Z,6.15
2022-08-25T21:00:58.193Z,3.97
2022-08-25T21:03:26.870Z,3.88
2022-08-25T21:05:56.685Z,3.35
2022-08-25T21:08:28.444Z,4.30
2022-08-25T21:11:09.830Z,3.45
2022-08-25T21:13:39.282Z,3.28
2022-08-25T21:16:23.971Z,2.28
2022-08-25T21:18:53.613Z,1.90
2022-08-25T21:21:22.943Z,2.60
2022-08-25T21:23:55.569Z,4.90
2022-08-25T21:26:29.330Z,3.95
2022-08-25T21:29:00.296Z,4.90
2022-08-25T21:31:29.566Z,4.18
2022-08-25T21:34:06.580Z,3.33
2022-08-25T21:36:36.462Z,3.35
2022-08-25T21:39:06.206Z,3.30
2022-08-25T21:41:36.862Z,5.28
2022-08-25T21:44:07.760Z,1.55
2022-08-25T21:46:53.792Z,6.82
2022-08-25T21:49:23.554Z,1.80
2022-08-25T21:52:15.535Z,2.78
2022-08-25T21:54:47.570Z,4.68
2022-08-25T21:57:19.191Z,1.83
2022-08-25T21:59:53.200Z,3.85
2022-08-25T22:02:23.225Z,3.90
2022-08-25T22:04:53.754Z,3.45
2022-08-25T22:07:23.997Z,3.92
2022-08-25T22:10:01.054Z,3.40
2022-08-25T22:12:29.435Z,2.25
2022-08-25T22:14:59.542Z,2.60
2022-08-25T22:17:27.479Z,0.93
2022-08-25T22:19:56.639Z,3.40
2022-08-25T22:22:25.696Z,2.15
2022-08-25T22:24:56.018Z,3.60
2022-08-25T22:27:26.569Z,3.08
2022-08-25T22:29:54.647Z,3.00
2022-08-25T22:32:22.733Z,2.10
2022-08-25T22:34:56.555Z,4.32
2022-08-25T22:37:25.949Z,4.90
2022-08-25T22:39:55.303Z,3.13
2022-08-25T22:42:26.032Z,1.92
2022-08-25T22:44:55.122Z,4.40
2022-08-25T22:47:22.958Z,1.75
2022-08-25T22:49:52.443Z,4.82
2022-08-25T22:52:20.602Z,3.70
2022-08-25T22:55:00.567Z,4.15
2022-08-25T22:57:30.596Z,3.25
2022-08-25T22:59:59.233Z,3.95
2022-08-25T23:02:30.313Z,3.78
2022-08-25T23:05:00.816Z,3.50
2022-08-25T23:07:29.162Z,3.30
2022-08-25T23:09:59.726Z,5.57
2022-08-25T23:12:29.276Z,2.15
2022-08-25T23:14:57.547Z,5.13
2022-08-25T23:17:29.213Z,2.58
2022-08-25T23:19:57.305Z,2.60
2022-08-25T23:22:24.232Z,2.47
2022-08-25T23:24:55.216Z,2.58
2022-08-25T23:27:25.162Z,2.65
2022-08-25T23:29:54.594Z,2.03
2022-08-25T23:32:22.598Z,1.20
2022-08-25T23:34:51.910Z,2.53
2022-08-25T23:37:19.891Z,3.33
2022-08-25T23:39:49.828Z,3.35
2022-08-25T23:42:19.396Z,1.30
2022-08-25T23:44:48.224Z,4.03
2022-08-25T23:47:18.727Z,2.35
2022-08-25T23:49:48.289Z,4.63
2022-08-25T23:52:17.775Z,3.47
2022-08-25T23:54:46.521Z,2.95
2022-08-25T23:57:15.036Z,1.55
2022-08-25T23:59:43.517Z,3.40
